Time;durP1;ratioP1;P1;durP2;ratioP2;P2;SDS_P1;SDS_P2;PMS_P1;PMS_P2;Temp;Humidity;BMP_temperature;BMP_pressure;BME280_temperature;BME280_humidity;BME280_pressure;Samples;Min_cycle;Max_cycle;Signal;HPM_P1;HPM_P2
2022/09/04 00:01:00;;;;;;;3.75;1.75;;;;;;;24.27;40.40;101251.09;16135650;19;129785;-59
2022/09/04 00:06:27;;;;;;;1.83;1.50;;;;;;;24.27;40.48;101265.06;16138074;19;129426;-63
2022/09/04 00:12:07;;;;;;;3.83;1.80;;;;;;;24.29;40.61;101271.22;16137655;19;129228;-68
2022/09/04 00:17:37;;;;;;;2.92;1.77;;;;;;;24.30;40.42;101269.25;16136688;19;129604;-62
2022/09/04 00:23:09;;;;;;;3.63;1.67;;;;;;;24.28;40.30;101275.13;16140480;19;130074;-61
2022/09/04 00:28:40;;;;;;;2.63;1.48;;;;;;;24.30;40.39;101277.63;16146829;19;130297;-70
2022/09/04 00:34:17;;;;;;;5.05;1.80;;;;;;;24.31;40.31;101276.53;16153876;19;129219;-70
2022/09/04 00:39:47;;;;;;;1.73;1.55;;;;;;;24.29;40.20;101279.59;16150579;19;129127;-65
2022/09/04 00:45:19;;;;;;;3.25;1.67;;;;;;;24.32;40.42;101286.59;16147425;19;129835;-67
2022/09/04 00:51:06;;;;;;;3.05;1.60;;;;;;;24.29;40.36;101296.38;16141888;19;129621;-67
2022/09/04 00:56:47;;;;;;;2.75;1.50;;;;;;;24.27;39.79;101295.81;16147441;19;129550;-67
2022/09/04 01:02:31;;;;;;;1.85;1.50;;;;;;;24.23;40.03;101298.28;16143453;19;130692;-67
2022/09/04 01:08:16;;;;;;;2.60;1.67;;;;;;;24.22;40.55;101306.94;16144314;19;129667;-67
2022/09/04 01:13:41;;;;;;;2.42;1.58;;;;;;;24.17;40.36;101310.56;16147465;19;129625;-67
2022/09/04 01:19:11;;;;;;;3.40;1.57;;;;;;;24.17;40.19;101326.50;16146887;19;129310;-67
2022/09/04 01:25:14;;;;;;;1.40;1.30;;;;;;;24.15;40.19;101325.94;16147423;19;129207;-67
2022/09/04 01:31:02;;;;;;;3.22;1.75;;;;;;;24.12;40.15;101324.53;16142071;19;129010;-68
2022/09/04 01:36:54;;;;;;;2.25;1.77;;;;;;;24.10;39.99;101332.34;16142915;19;129497;-67
2022/09/04 01:42:51;;;;;;;1.92;1.50;;;;;;;24.09;40.17;101336.25;16146350;19;129682;-67
2022/09/04 01:48:15;;;;;;;;;;;;;;;24.04;40.16;101339.03;16142292;19;133330;-68
2022/09/04 01:53:43;;;;;;;2.40;1.38;;;;;;;24.06;40.26;101342.41;16144656;19;129303;-68
2022/09/04 01:59:18;;;;;;;1.83;1.38;;;;;;;24.06;40.38;101353.56;16142298;19;129452;-67
2022/09/04 02:05:11;;;;;;;2.25;1.30;;;;;;;24.03;40.11;101354.13;16138868;19;129591;-68
2022/09/04 02:10:35;;;;;;;3.38;1.67;;;;;;;24.01;40.09;101361.91;16139488;19;129542;-68
2022/09/04 02:16:09;;;;;;;4.50;1.52;;;;;;;23.97;40.09;101359.69;16137155;19;128936;-68
2022/09/04 02:21:45;;;;;;;2.30;1.65;;;;;;;23.97;40.10;101365.28;16141021;19;130121;-68
2022/09/04 02:27:15;;;;;;;1.50;1.38;;;;;;;23.97;40.06;101367.22;16142856;19;129940;-68
2022/09/04 02:32:40;;;;;;;1.58;1.48;;;;;;;23.96;40.19;101366.41;16139931;19;129423;-68
2022/09/04 02:38:31;;;;;;;1.73;1.63;;;;;;;23.96;40.10;101366.41;16141823;19;129561;-69
2022/09/04 02:44:34;;;;;;;2.00;1.55;;;;;;;23.95;40.15;101380.63;16138117;19;129596;-69
2022/09/04 02:50:14;;;;;;;1.60;1.50;;;;;;;23.93;40.22;101380.09;16135199;19;130381;-69
2022/09/04 02:56:08;;;;;;;2.17;1.48;;;;;;;23.91;40.05;101379.50;16139882;19;129331;-69
2022/09/04 03:01:47;;;;;;;1.95;1.45;;;;;;;23.90;40.27;101389.81;16137915;19;129196;-69
2022/09/04 03:07:23;;;;;;;1.45;1.35;;;;;;;23.89;40.21;101379.75;16138486;19;130425;-69
2022/09/04 03:12:53;;;;;;;1.92;1.38;;;;;;;23.87;40.09;101390.38;16139288;19;130501;-69
2022/09/04 03:18:19;;;;;;;1.98;1.50;;;;;;;23.86;40.07;101388.72;16139240;19;129486;-70
2022/09/04 03:23:54;;;;;;;1.55;1.45;;;;;;;23.87;40.33;101395.97;16138579;19;129466;-69
2022/09/04 03:29:53;;;;;;;2.50;1.30;;;;;;;23.84;40.16;101396.50;16137724;19;130536;-69
2022/09/04 03:35:38;;;;;;;2.25;1.48;;;;;;;23.84;40.17;101402.09;16133945;19;129554;-69
2022/09/04 03:41:31;;;;;;;1.60;1.50;;;;;;;23.82;40.04;101398.72;16138138;19;129976;-70
2022/09/04 03:47:15;;;;;;;2.25;1.45;;;;;;;23.81;40.07;101413.81;16133714;19;130244;-69
2022/09/04 03:52:48;;;;;;;1.55;1.30;;;;;;;23.81;40.42;101420.25;16138258;19;130511;-70
2022/09/04 03:58:28;;;;;;;1.77;1.40;;;;;;;23.79;40.42;101422.47;16145208;19;129700;-70
2022/09/04 04:04:23;;;;;;;3.35;1.45;;;;;;;23.79;40.16;101433.66;16147697;19;129536;-70
2022/09/04 04:10:32;;;;;;;1.30;1.20;;;;;;;23.75;40.11;101432.50;16148968;19;129192;-70
2022/09/04 04:16:02;;;;;;;1.33;1.23;;;;;;;23.77;40.05;101435.88;16142499;19;128984;-70
2022/09/04 04:21:30;;;;;;;1.20;1.10;;;;;;;23.76;40.40;101436.13;16141625;19;130183;-70
2022/09/04 04:27:10;;;;;;;2.22;1.33;;;;;;;23.77;40.17;101435.00;16141000;19;129306;-70
2022/09/04 04:32:38;;;;;;;1.20;1.10;;;;;;;23.75;40.20;101437.25;16141387;19;129436;-70
2022/09/04 04:38:30;;;;;;;1.55;1.30;;;;;;;23.75;40.14;101437.25;16144652;19;129635;-70
2022/09/04 04:43:55;;;;;;;1.70;1.17;;;;;;;23.72;40.02;101444.19;16140266;19;129632;-71
2022/09/04 04:49:21;;;;;;;1.77;1.37;;;;;;;23.73;40.46;101439.47;16142192;19;129557;-71
2022/09/04 04:55:07;;;;;;;2.40;1.60;;;;;;;23.72;40.13;101454.53;16142716;19;129127;-70
2022/09/04 05:00:41;;;;;;;;;;;;;;;23.66;40.31;101460.09;16146700;19;129281;-70
2022/09/04 05:06:18;;;;;;;2.00;1.48;;;;;;;23.69;40.13;101475.50;16147105;19;129391;-70
2022/09/04 05:11:59;;;;;;;1.50;1.25;;;;;;;23.69;40.15;101478.28;16142313;19;129339;-71
2022/09/04 05:17:49;;;;;;;1.73;1.25;;;;;;;23.68;40.09;101486.91;16146486;19;129988;-71
2022/09/04 05:23:41;;;;;;;1.00;0.90;;;;;;;23.66;39.91;101496.41;16145853;19;129708;-70
2022/09/04 05:29:20;;;;;;;1.58;1.33;;;;;;;23.66;40.26;101504.78;16145447;19;129483;-70
2022/09/04 05:34:51;;;;;;;2.22;1.42;;;;;;;23.65;40.11;101508.69;16145785;19;130540;-71
2022/09/04 05:40:26;;;;;;;3.08;1.35;;;;;;;23.65;40.19;101517.06;16146209;19;129632;-71
2022/09/04 05:46:33;;;;;;;2.27;1.10;;;;;;;23.63;40.27;101516.47;16144636;19;130851;-71
2022/09/04 05:51:54;;;;;;;2.87;1.27;;;;;;;23.63;40.12;101524.84;16132906;19;130104;-70
2022/09/04 05:57:51;;;;;;;1.20;1.08;;;;;;;23.64;39.82;101534.91;16135657;19;129817;-70
2022/09/04 06:03:50;;;;;;;1.83;1.20;;;;;;;23.65;40.20;101544.16;16131747;19;130449;-71
2022/09/04 06:09:43;;;;;;;2.30;1.20;;;;;;;23.63;40.19;101546.38;16132382;19;129578;-68
2022/09/04 06:15:13;;;;;;;3.03;1.63;;;;;;;23.63;40.63;101544.41;16134068;19;129856;-71
2022/09/04 06:21:11;;;;;;;6.07;1.90;;;;;;;23.65;40.37;101550.56;16135356;19;129811;-72
2022/09/04 06:26:55;;;;;;;5.35;2.40;;;;;;;23.72;40.48;101549.53;16132544;19;130020;-71
2022/09/04 06:32:35;;;;;;;5.38;2.30;;;;;;;23.73;41.07;101556.81;16122984;19;129586;-68
2022/09/04 06:38:25;;;;;;;3.13;2.08;;;;;;;23.79;41.04;101566.91;16136681;19;130682;-65
2022/09/04 06:44:02;;;;;;;3.35;2.00;;;;;;;23.86;41.07;101561.94;16134420;19;129699;-66
2022/09/04 06:49:42;;;;;;;6.63;2.17;;;;;;;23.92;41.13;101569.25;16130005;19;130179;-70
2022/09/04 06:55:31;;;;;;;4.65;2.38;;;;;;;23.96;41.13;101573.19;16132839;19;130054;-68
2022/09/04 07:01:18;;;;;;;4.60;2.35;;;;;;;24.02;41.40;101567.63;16139748;19;130058;-69
2022/09/04 07:07:01;;;;;;;8.57;2.72;;;;;;;24.10;41.60;101578.34;16138667;19;129463;-66
2022/09/04 07:12:43;;;;;;;5.55;2.40;;;;;;;24.12;41.26;101581.72;16136560;19;130733;-72
2022/09/04 07:18:22;;;;;;;4.93;2.42;;;;;;;24.16;40.98;101580.03;16138751;19;129356;-70
2022/09/04 07:24:12;;;;;;;6.55;2.80;;;;;;;24.21;41.12;101585.69;16139401;19;129475;-68
2022/09/04 07:29:42;;;;;;;6.00;3.20;;;;;;;24.26;41.19;101602.50;16137264;19;130575;-70
2022/09/04 07:35:36;;;;;;;8.15;2.58;;;;;;;24.26;41.06;101615.66;16136620;19;129044;-69
2022/09/04 07:41:08;;;;;;;6.60;2.85;;;;;;;24.29;41.38;101609.53;16139356;19;130411;-70
2022/09/04 07:46:49;;;;;;;6.32;2.80;;;;;;;24.32;41.04;101605.34;16137737;19;129204;-70
2022/09/04 07:52:49;;;;;;;6.95;2.65;;;;;;;24.34;41.23;101622.72;16133102;19;129648;-69
2022/09/04 07:58:45;;;;;;;7.22;2.92;;;;;;;24.34;41.39;101623.53;16138149;19;128864;-70
2022/09/04 08:04:49;;;;;;;8.35;3.03;;;;;;;24.36;41.62;101628.88;16132578;19;129961;-69
2022/09/04 08:10:30;;;;;;;5.90;3.00;;;;;;;24.37;41.74;101634.19;16134505;19;129076;-69
2022/09/04 08:16:08;;;;;;;4.75;3.15;;;;;;;24.38;42.20;101635.00;16134838;19;130199;-69
2022/09/04 08:21:38;;;;;;;5.55;2.97;;;;;;;24.38;41.73;101638.69;16136271;19;129269;-69
2022/09/04 08:27:17;;;;;;;6.70;3.60;;;;;;;24.38;41.94;101633.09;16134212;19;129693;-69
2022/09/04 08:32:48;;;;;;;4.43;3.05;;;;;;;24.39;42.05;101639.50;16129223;19;130293;-69
2022/09/04 08:38:32;;;;;;;5.32;2.80;;;;;;;24.39;42.23;101642.28;16133607;19;129461;-69
2022/09/04 08:44:03;;;;;;;7.07;3.47;;;;;;;24.39;42.15;101642.28;16138459;19;130506;-70
2022/09/04 08:49:45;;;;;;;8.55;3.63;;;;;;;24.38;41.99;101646.19;16144327;19;129452;-71
2022/09/04 08:55:26;;;;;;;6.57;3.53;;;;;;;24.40;42.38;101652.38;16147581;19;131665;-68
2022/09/04 09:01:15;;;;;;;5.00;3.17;;;;;;;24.41;42.59;101651.28;16147765;19;129509;-66
2022/09/04 09:07:12;;;;;;;7.30;3.50;;;;;;;24.44;42.86;101650.75;16149586;19;129442;-67
2022/09/04 09:12:52;;;;;;;7.47;3.53;;;;;;;24.51;42.70;101653.31;16136917;19;130593;-69
2022/09/04 09:18:37;;;;;;;9.38;3.90;;;;;;;24.54;42.55;101648.00;16140232;19;130001;-70
2022/09/04 09:24:38;;;;;;;10.30;3.53;;;;;;;24.57;42.94;101655.88;16141778;19;129425;-64
2022/09/04 09:30:18;;;;;;;8.25;3.50;;;;;;;24.63;43.03;101653.09;16137694;19;129060;-66
2022/09/04 09:35:58;;;;;;;7.32;4.00;;;;;;;24.68;43.71;101664.31;16139066;19;129477;-68
2022/09/04 09:41:40;;;;;;;8.25;4.20;;;;;;;24.69;43.29;101663.22;16140449;19;129790;-67
2022/09/04 09:47:14;;;;;;;8.05;4.40;;;;;;;24.69;43.50;101664.03;16140302;19;130692;-61
2022/09/04 09:52:35;;;;;;;18.55;4.60;;;;;;;24.70;43.49;101660.13;16143135;19;129276;-64
2022/09/04 09:58:00;;;;;;;23.05;4.40;;;;;;;24.75;43.55;101661.28;16143635;19;129284;-66
2022/09/04 10:03:55;;;;;;;12.80;4.37;;;;;;;24.75;43.64;101659.31;16142978;19;129798;-68
2022/09/04 10:09:49;;;;;;;10.07;3.50;;;;;;;24.77;43.22;101657.09;16146162;19;129900;-61
2022/09/04 10:15:32;;;;;;;13.88;4.38;;;;;;;24.80;43.18;101645.38;16143423;19;130351;-66
2022/09/04 10:21:19;;;;;;;9.63;3.42;;;;;;;24.84;42.55;101651.25;16144730;19;129181;-67
2022/09/04 10:27:00;;;;;;;7.40;3.58;;;;;;;24.84;42.19;101660.50;16145779;19;129447;-69
2022/09/04 10:32:36;;;;;;;10.88;3.53;;;;;;;24.87;41.87;101654.34;16141170;19;129640;-73
2022/09/04 10:38:24;;;;;;;8.82;3.40;;;;;;;24.92;41.95;101652.72;16140722;19;129962;-63
2022/09/04 10:44:04;;;;;;;7.22;3.28;;;;;;;24.94;41.78;101651.34;16138143;19;129434;-73
2022/09/04 10:49:47;;;;;;;6.22;2.97;;;;;;;24.98;41.75;101643.25;16139795;19;130337;-64
2022/09/04 10:55:31;;;;;;;4.70;2.63;;;;;;;24.99;41.76;101642.97;16144265;19;129143;-72
2022/09/04 11:01:26;;;;;;;6.22;3.08;;;;;;;25.00;41.18;101641.00;16143058;19;130356;-73
2022/09/04 11:07:21;;;;;;;3.78;2.50;;;;;;;25.00;39.67;101641.00;16142524;19;129666;-72
2022/09/04 11:13:01;;;;;;;3.40;2.00;;;;;;;24.98;37.48;101640.47;16139317;19;129794;-72
2022/09/04 11:18:25;;;;;;;7.03;1.48;;;;;;;24.98;36.20;101643.25;16143843;19;129558;-72
2022/09/04 11:24:16;;;;;;;4.90;1.40;;;;;;;24.94;34.34;101642.94;16136391;19;129335;-72
2022/09/04 11:30:10;;;;;;;4.38;0.90;;;;;;;24.98;33.79;101646.06;16140437;19;129099;-61
2022/09/04 11:35:57;;;;;;;5.88;1.33;;;;;;;24.99;33.01;101651.38;16137460;19;129535;-71
2022/09/04 11:41:56;;;;;;;2.78;1.40;;;;;;;25.02;32.79;101645.25;16140162;19;129442;-68
2022/09/04 11:47:35;;;;;;;5.28;1.13;;;;;;;25.04;32.67;101647.75;16138108;19;129733;-70
2022/09/04 11:53:23;;;;;;;5.65;1.30;;;;;;;25.04;32.21;101642.16;16132690;19;129249;-70
2022/09/04 11:59:23;;;;;;;4.13;1.00;;;;;;;25.07;31.74;101660.34;16136633;19;129720;-62
2022/09/04 12:05:05;;;;;;;4.90;1.30;;;;;;;25.07;31.84;101649.16;16133790;19;129808;-69
2022/09/04 12:10:54;;;;;;;3.83;1.20;;;;;;;25.09;32.20;101647.78;16134547;19;130152;-64
2022/09/04 12:16:55;;;;;;;4.63;1.13;;;;;;;25.09;32.74;101652.53;16139029;19;129241;-69
2022/09/04 12:22:50;;;;;;;4.32;1.30;;;;;;;25.08;32.51;101651.69;16152017;19;129512;-65
2022/09/04 12:28:32;;;;;;;5.60;1.00;;;;;;;25.07;32.19;101658.41;16151228;19;129226;-66
2022/09/04 12:34:19;;;;;;;6.03;1.17;;;;;;;25.08;32.22;101657.31;16144838;19;130504;-67
2022/09/04 12:40:07;;;;;;;1.70;0.98;;;;;;;25.10;32.38;101663.47;16152423;19;129857;-60
2022/09/04 12:45:48;;;;;;;2.03;1.20;;;;;;;25.13;31.83;101662.06;16148705;19;129238;-68
2022/09/04 12:51:13;;;;;;;6.32;1.35;;;;;;;25.15;31.81;101663.47;16147529;19;130849;-70
2022/09/04 12:56:52;;;;;;;;;;;;;;;25.14;31.33;101664.59;16152029;19;129537;-67
2022/09/04 13:02:47;;;;;;;1.92;1.00;;;;;;;25.16;31.61;101667.13;16142329;19;131975;-68
2022/09/04 13:08:10;;;;;;;9.50;1.20;;;;;;;25.14;32.03;101670.19;16148156;19;131211;-59
2022/09/04 13:13:34;;;;;;;2.25;0.98;;;;;;;25.17;32.11;101652.03;16143117;19;129260;-64
2022/09/04 13:19:02;;;;;;;5.23;1.40;;;;;;;25.19;31.49;101667.41;16145779;19;129384;-63
2022/09/04 13:24:38;;;;;;;3.67;1.08;;;;;;;25.19;31.81;101674.97;16146827;19;130532;-64
2022/09/04 13:30:08;;;;;;;3.13;0.88;;;;;;;25.19;31.78;101678.63;16146830;19;129355;-64
2022/09/04 13:36:00;;;;;;;2.17;1.00;;;;;;;25.23;31.81;101675.28;16146020;19;129524;-63
2022/09/04 13:41:40;;;;;;;4.50;1.30;;;;;;;25.23;31.58;101661.28;16147195;19;130807;-70
2022/09/04 13:47:10;;;;;;;3.58;1.20;;;;;;;25.24;31.58;101663.78;16141163;19;129423;-65
2022/09/04 13:52:41;;;;;;;4.88;1.25;;;;;;;25.25;32.25;101668.28;16144259;19;129222;-60
2022/09/04 13:58:37;;;;;;;4.30;1.02;;;;;;;25.27;31.95;101668.84;16144500;19;129555;-69
2022/09/04 14:04:06;;;;;;;9.85;1.30;;;;;;;25.25;32.03;101661.81;16140661;19;129152;-62
2022/09/04 14:09:40;;;;;;;3.55;0.98;;;;;;;25.26;31.98;101658.78;16145106;19;128897;-62
2022/09/04 14:15:18;;;;;;;6.18;1.27;;;;;;;25.26;31.58;101672.78;16144910;19;129657;-62
2022/09/04 14:20:45;;;;;;;7.40;1.00;;;;;;;25.26;31.34;101669.13;16144902;19;130309;-60
2022/09/04 14:26:14;;;;;;;3.00;1.17;;;;;;;25.26;31.19;101666.31;16143021;19;129750;-63
2022/09/04 14:31:45;;;;;;;3.50;1.20;;;;;;;25.25;30.97;101657.09;16136587;19;129534;-64
2022/09/04 14:37:47;;;;;;;5.53;0.90;;;;;;;25.27;30.73;101645.59;16133456;19;130378;-65
2022/09/04 14:43:20;;;;;;;4.05;1.10;;;;;;;25.28;30.85;101650.94;16137984;19;129518;-63
2022/09/04 14:48:47;;;;;;;3.83;1.27;;;;;;;25.27;30.86;101646.44;16137185;19;129291;-62
2022/09/04 14:54:17;;;;;;;7.78;1.10;;;;;;;25.28;31.01;101655.69;16133738;19;130289;-64
2022/09/04 14:59:50;;;;;;;3.10;1.20;;;;;;;25.26;31.04;101655.97;16139875;19;129822;-64
2022/09/04 15:05:19;;;;;;;2.28;1.08;;;;;;;25.25;31.11;101653.44;16134153;19;129184;-64
2022/09/04 15:10:55;;;;;;;8.93;1.30;;;;;;;25.24;31.24;101652.59;16139289;19;129403;-63
2022/09/04 15:16:39;;;;;;;4.35;0.95;;;;;;;25.21;31.28;101641.94;16159123;19;129254;-64
2022/09/04 15:22:08;;;;;;;2.30;0.93;;;;;;;25.17;31.61;101647.25;16173468;19;128932;-63
2022/09/04 15:27:30;;;;;;;8.27;0.90;;;;;;;25.17;31.28;101646.41;16173607;19;128754;-64
2022/09/04 15:33:07;;;;;;;4.18;1.17;;;;;;;25.18;32.05;101637.72;16173323;19;129538;-65
2022/09/04 15:38:31;;;;;;;4.00;1.23;;;;;;;25.16;31.47;101639.97;16152783;19;129270;-64
2022/09/04 15:44:25;;;;;;;3.33;0.85;;;;;;;25.17;31.46;101633.25;16145718;19;132479;-63
2022/09/04 15:49:59;;;;;;;3.85;1.00;;;;;;;25.16;31.40;101639.97;16138839;19;129252;-64
2022/09/04 15:55:28;;;;;;;5.13;0.98;;;;;;;25.15;31.48;101638.28;16206609;19;128820;-63
2022/09/04 16:01:05;;;;;;;6.93;1.00;;;;;;;25.16;31.03;101627.94;16231028;19;128520;-64
2022/09/04 16:06:53;;;;;;;4.43;0.98;;;;;;;25.15;31.14;101627.06;16224725;19;128746;-63
2022/09/04 16:12:22;;;;;;;6.20;1.23;;;;;;;25.15;30.96;101635.47;16230212;19;128604;-64
2022/09/04 16:17:51;;;;;;;5.05;1.00;;;;;;;25.15;30.86;101631.84;16231096;19;129438;-65
2022/09/04 16:23:17;;;;;;;5.15;1.10;;;;;;;25.14;30.39;101631.00;16230806;19;128384;-65
2022/09/04 16:28:54;;;;;;;16.30;1.60;;;;;;;25.16;30.06;101634.38;16234215;19;128139;-65
2022/09/04 16:34:20;;;;;;;12.77;1.50;;;;;;;25.14;29.97;101625.38;16226288;19;128479;-66
2022/09/04 16:39:57;;;;;;;11.18;1.48;;;;;;;25.14;30.13;101633.78;16232692;19;128009;-66
2022/09/04 16:45:28;;;;;;;5.13;1.08;;;;;;;25.14;30.28;101630.16;16232778;19;128350;-64
2022/09/04 16:50:57;;;;;;;5.72;1.20;;;;;;;25.12;30.54;101636.00;16227474;19;128378;-67
2022/09/04 16:56:48;;;;;;;11.23;1.55;;;;;;;25.14;30.64;101624.56;16224091;19;129138;-65
2022/09/04 17:02:36;;;;;;;8.75;2.45;;;;;;;25.13;30.71;101626.50;16222850;19;128647;-65
2022/09/04 17:08:13;;;;;;;23.60;8.68;;;;;;;25.13;30.59;101623.72;16224066;19;128662;-66
2022/09/04 17:13:51;;;;;;;48.80;21.67;;;;;;;25.13;30.97;101629.31;16221544;19;128280;-65
2022/09/04 17:19:14;;;;;;;65.03;31.00;;;;;;;25.11;31.85;101631.53;16223649;19;129077;-66
2022/09/04 17:24:44;;;;;;;67.85;30.50;;;;;;;25.12;32.47;101638.81;16220770;19;130473;-65
2022/09/04 17:30:39;;;;;;;57.95;28.08;;;;;;;25.10;33.02;101635.47;16196569;19;130074;-67
2022/09/04 17:36:25;;;;;;;84.53;48.53;;;;;;;25.08;33.41;101634.91;16161523;19;129622;-66
2022/09/04 17:42:19;;;;;;;92.27;57.07;;;;;;;25.08;33.71;101648.91;16162729;19;129565;-65
2022/09/04 17:47:42;;;;;;;132.70;99.40;;;;;;;25.03;33.61;101640.47;16007837;19;2943528;-66
2022/09/04 17:53:06;;;;;;;133.30;98.22;;;;;;;25.01;33.89;101648.28;16160507;19;129387;-66
2022/09/04 17:58:58;;;;;;;123.18;87.72;;;;;;;24.99;33.98;101645.78;16162250;19;129921;-66
2022/09/04 18:04:46;;;;;;;115.00;86.70;;;;;;;24.97;33.73;101652.78;16153658;19;129709;-65
2022/09/04 18:10:36;;;;;;;111.38;78.55;;;;;;;24.93;33.91;101662.81;16160560;19;128735;-68
2022/09/04 18:16:16;;;;;;;96.85;71.53;;;;;;;24.86;33.59;101663.84;16150332;19;129486;-68
2022/09/04 18:22:28;;;;;;;87.90;64.35;;;;;;;24.82;33.88;101665.53;16157332;19;130190;-68
2022/09/04 18:28:08;;;;;;;89.13;59.55;;;;;;;24.80;33.80;101669.72;16157003;19;129415;-70
2022/09/04 18:33:45;;;;;;;85.75;51.88;;;;;;;24.78;34.31;101683.97;16156926;19;129361;-63
2022/09/04 18:39:40;;;;;;;85.07;41.03;;;;;;;24.79;34.84;101677.25;16161319;19;129464;-61
2022/09/04 18:45:11;;;;;;;67.03;41.03;;;;;;;24.84;35.53;101682.91;16159567;19;130590;-61
2022/09/04 18:51:17;;;;;;;70.45;38.72;;;;;;;24.90;36.18;101686.59;16159535;19;130333;-65
2022/09/04 18:56:46;;;;;;;59.38;36.08;;;;;;;24.94;36.42;101681.28;16159684;19;129117;-68
2022/09/04 19:02:29;;;;;;;63.00;33.25;;;;;;;25.00;36.54;101691.38;16158594;19;128993;-62
2022/09/04 19:08:00;;;;;;;54.03;31.27;;;;;;;25.01;36.66;101699.53;16152103;19;129513;-61
2022/09/04 19:13:28;;;;;;;61.13;30.02;;;;;;;25.06;37.01;101706.25;16139129;19;128969;-65
2022/09/04 19:19:14;;;;;;;44.25;27.73;;;;;;;25.09;37.27;101706.59;16140193;19;129625;-56
2022/09/04 19:24:50;;;;;;;50.65;26.65;;;;;;;25.11;37.60;101715.53;16137238;19;129276;-58
2022/09/04 19:30:21;;;;;;;48.90;24.88;;;;;;;25.13;37.70;101718.91;16140253;19;130069;-59
2022/09/04 19:35:59;;;;;;;41.33;23.67;;;;;;;25.15;37.75;101716.69;16133384;19;130445;-60
2022/09/04 19:41:28;;;;;;;52.85;21.50;;;;;;;25.21;37.71;101713.91;16134907;19;130122;-63
2022/09/04 19:47:13;;;;;;;55.97;21.20;;;;;;;25.21;37.53;101713.91;16132351;19;129547;-59
2022/09/04 19:52:54;;;;;;;49.08;20.67;;;;;;;25.18;37.50;101716.13;16136231;19;129635;-60
2022/09/04 19:58:57;;;;;;;;;;;;;;;25.12;37.84;101722.81;16137751;19;129674;-61
2022/09/04 20:04:30;;;;;;;42.40;18.10;;;;;;;25.13;37.71;101730.09;16131217;19;129029;-61
2022/09/04 20:09:57;;;;;;;41.78;18.35;;;;;;;25.08;38.03;101730.09;16135832;19;130456;-64
2022/09/04 20:15:23;;;;;;;35.75;16.75;;;;;;;25.07;37.93;101739.59;16128523;19;129721;-63
2022/09/04 20:21:16;;;;;;;40.25;16.48;;;;;;;25.07;38.34;101734.00;16138694;19;130634;-62
2022/09/04 20:26:51;;;;;;;26.23;15.63;;;;;;;25.09;38.46;101742.13;16131398;19;129774;-61
2022/09/04 20:32:44;;;;;;;29.52;14.63;;;;;;;25.10;38.44;101736.25;16132298;19;129347;-60
2022/09/04 20:38:32;;;;;;;23.65;14.20;;;;;;;25.07;38.30;101735.94;16132143;19;129506;-61
2022/09/04 20:44:17;;;;;;;38.65;14.48;;;;;;;25.07;38.82;101742.41;16145802;19;129373;-62
2022/09/04 20:50:27;;;;;;;26.75;13.70;;;;;;;25.00;38.51;101734.25;16141734;19;129777;-62
2022/09/04 20:56:27;;;;;;;25.50;13.23;;;;;;;24.93;38.58;101735.59;16141995;19;129135;-62
2022/09/04 21:02:34;;;;;;;24.42;13.15;;;;;;;24.86;38.65;101730.19;16142629;19;129892;-63
2022/09/04 21:08:19;;;;;;;;;;;;;;;24.80;38.49;101751.72;16141998;19;129741;-64
2022/09/04 21:13:45;;;;;;;18.40;11.85;;;;;;;24.80;38.39;101760.09;16144450;19;129698;-64
2022/09/04 21:19:34;;;;;;;22.23;11.55;;;;;;;24.78;38.40;101759.53;16147568;19;129766;-64
2022/09/04 21:25:28;;;;;;;17.02;10.95;;;;;;;24.76;38.28;101758.09;16144576;19;129296;-64
2022/09/04 21:31:07;;;;;;;17.58;11.10;;;;;;;24.72;38.22;101757.81;16143996;19;129566;-64
2022/09/04 21:36:52;;;;;;;19.25;10.93;;;;;;;24.71;38.36;101756.94;16139022;19;129312;-64
2022/09/04 21:42:36;;;;;;;18.60;10.52;;;;;;;24.71;37.97;101761.72;16141935;19;130356;-63
2022/09/04 21:48:22;;;;;;;16.52;10.13;;;;;;;24.68;38.21;101757.47;16139859;19;129023;-64
2022/09/04 21:53:57;;;;;;;20.23;10.38;;;;;;;24.67;38.25;101758.63;16138338;19;129053;-64
2022/09/04 21:59:27;;;;;;;17.73;9.75;;;;;;;24.65;38.27;101752.44;16140734;19;129507;-64
2022/09/04 22:05:30;;;;;;;16.77;9.15;;;;;;;24.65;38.03;101757.19;16142274;19;131628;-63
2022/09/04 22:10:54;;;;;;;18.65;9.90;;;;;;;24.63;38.13;101767.78;16141210;19;129404;-63
2022/09/04 22:17:02;;;;;;;15.13;9.07;;;;;;;24.64;38.30;101764.75;16135280;19;129730;-63
2022/09/04 22:23:05;;;;;;;12.15;8.18;;;;;;;24.62;37.79;101763.31;16137652;19;130737;-63
2022/09/04 22:28:33;;;;;;;16.15;9.48;;;;;;;24.58;38.00;101766.66;16138867;19;129555;-64
2022/09/04 22:34:31;;;;;;;11.48;8.20;;;;;;;24.58;37.64;101772.25;16137449;19;129622;-63
2022/09/04 22:40:24;;;;;;;14.98;7.78;;;;;;;24.56;38.16;101768.88;16138757;19;129521;-63
2022/09/04 22:46:25;;;;;;;11.70;8.40;;;;;;;24.56;37.91;101774.47;16138301;19;129234;-63
2022/09/04 22:52:10;;;;;;;11.73;7.80;;;;;;;24.54;37.93;101779.47;16138904;19;129075;-63
2022/09/04 22:57:43;;;;;;;11.55;7.35;;;;;;;24.53;38.05;101769.41;16134779;19;132070;-63
2022/09/04 23:03:40;;;;;;;11.23;6.90;;;;;;;24.52;37.90;101775.28;16133294;19;129697;-63
2022/09/04 23:09:26;;;;;;;11.65;7.00;;;;;;;24.51;37.82;101768.81;16137422;19;130039;-63
2022/09/04 23:15:38;;;;;;;11.20;7.68;;;;;;;24.50;37.88;101769.09;16134328;19;130484;-63
2022/09/04 23:21:30;;;;;;;9.63;7.18;;;;;;;24.49;37.63;101759.88;16137532;19;129479;-63
2022/09/04 23:27:21;;;;;;;9.35;6.63;;;;;;;24.46;37.76;101760.41;16138207;19;130082;-63
2022/09/04 23:32:54;;;;;;;10.00;6.65;;;;;;;24.46;37.75;101766.00;16133232;19;129085;-63
2022/09/04 23:38:38;;;;;;;11.25;7.00;;;;;;;24.46;37.75;101765.13;16136168;19;129712;-63
2022/09/04 23:44:19;;;;;;;9.25;6.47;;;;;;;24.46;37.89;101757.59;16129714;19;129361;-63
2022/09/04 23:49:46;;;;;;;;;;;;;;;24.40;38.00;101762.31;16130570;19;129560;-63
2022/09/04 23:55:19;;;;;;;8.45;6.70;;;;;;;24.44;37.85;101757.03;16131845;19;130144;-63
